Mishawaka, Indiana
Current Conditions -  °F | °C
As of 7:54 PM on Tuesday 25 Nov 2014 (Local Time) from KSBN Reporting Station
Overcast Overcast  
Wind Chill: 18°   Ceiling: 2300
Heat Index: 26°   Visibility: 10mi
Dew Point: 19°   Wind: 8mph
Humidity: 75%   Direction: 210°SSW
Pressure: 30.18"   Gusts: NA
Location:  41.66°N, 86.18°W
Report Text: KSBN 260054Z 21007KT 10SM OVC023 M03/M07 A3018 RMK AO2 SLP231 T10331072
Loading
Personal Weather Stations






























Interactive Weather Map New forecast layout! Learn more

10-Day Weather Forecast

Advertisements
Track Severe Weather on mobile